createdAt,value
2022-09-15T00:00:42.684Z,995.08
2022-09-15T00:01:42.780Z,995.09
2022-09-15T00:02:42.755Z,995.11
2022-09-15T00:03:42.673Z,995.11
2022-09-15T00:04:42.642Z,995.13
2022-09-15T00:05:42.649Z,995.12
2022-09-15T00:06:42.654Z,995.12
2022-09-15T00:07:42.613Z,995.11
2022-09-15T00:08:42.603Z,995.10
2022-09-15T00:09:42.598Z,995.10
2022-09-15T00:10:42.602Z,995.09
2022-09-15T00:11:42.607Z,995.10
2022-09-15T00:12:42.567Z,995.08
2022-09-15T00:13:42.556Z,995.07
2022-09-15T00:14:42.548Z,995.07
2022-09-15T00:15:42.669Z,995.07
2022-09-15T00:16:42.607Z,995.04
2022-09-15T00:17:42.520Z,995.02
2022-09-15T00:18:42.517Z,995.00
2022-09-15T00:19:42.481Z,995.00
2022-09-15T00:20:42.485Z,995.01
2022-09-15T00:21:42.488Z,995.01
2022-09-15T00:22:42.456Z,995.00
2022-09-15T00:23:42.475Z,994.99
2022-09-15T00:24:42.437Z,994.97
2022-09-15T00:25:42.421Z,994.96
2022-09-15T00:26:42.423Z,994.95
2022-09-15T00:27:42.411Z,994.94
2022-09-15T00:28:42.408Z,994.93
2022-09-15T00:29:42.381Z,994.92
2022-09-15T00:30:42.429Z,994.92
2022-09-15T00:31:42.383Z,994.93
2022-09-15T00:32:42.345Z,994.93
2022-09-15T00:33:42.380Z,994.93
2022-09-15T00:34:42.328Z,994.94
2022-09-15T00:35:42.326Z,994.94
2022-09-15T00:36:42.333Z,994.95
2022-09-15T00:37:42.341Z,994.96
2022-09-15T00:38:42.292Z,994.96
2022-09-15T00:39:42.276Z,994.96
2022-09-15T00:40:42.315Z,994.95
2022-09-15T00:41:42.256Z,994.95
2022-09-15T00:42:42.282Z,994.95
2022-09-15T00:43:42.242Z,994.95
2022-09-15T00:44:42.230Z,994.96
2022-09-15T00:45:42.283Z,994.96
2022-09-15T00:46:42.224Z,994.97
2022-09-15T00:47:42.199Z,994.97
2022-09-15T00:48:42.214Z,994.97
2022-09-15T00:49:42.172Z,994.98
2022-09-15T00:50:42.173Z,994.97
2022-09-15T00:51:42.180Z,994.96
2022-09-15T00:52:42.142Z,994.95
2022-09-15T00:53:42.178Z,994.94
2022-09-15T00:54:42.120Z,994.92
2022-09-15T00:55:42.106Z,994.91
2022-09-15T00:56:42.134Z,994.89
2022-09-15T00:57:42.112Z,994.88
2022-09-15T00:58:42.119Z,994.87
2022-09-15T00:59:42.083Z,994.87
2022-09-15T01:00:42.055Z,994.86
2022-09-15T01:01:42.239Z,994.86
2022-09-15T01:02:42.120Z,994.86
2022-09-15T01:03:42.055Z,994.85
2022-09-15T01:04:42.041Z,994.85
2022-09-15T01:05:42.033Z,994.84
2022-09-15T01:06:41.996Z,994.84
2022-09-15T01:07:41.988Z,994.84
2022-09-15T01:08:42.015Z,994.85
2022-09-15T01:09:41.986Z,994.85
2022-09-15T01:10:41.970Z,994.86
2022-09-15T01:11:41.955Z,994.86
2022-09-15T01:12:41.944Z,994.86
2022-09-15T01:13:41.932Z,994.86
2022-09-15T01:14:41.938Z,994.86
2022-09-15T01:15:41.907Z,994.86
2022-09-15T01:16:41.962Z,994.86
2022-09-15T01:17:41.885Z,994.85
2022-09-15T01:18:41.861Z,994.85
2022-09-15T01:19:41.894Z,994.85
2022-09-15T01:20:41.859Z,994.85
2022-09-15T01:21:41.847Z,994.85
2022-09-15T01:22:41.820Z,994.86
2022-09-15T01:23:41.893Z,994.87
2022-09-15T01:24:41.810Z,994.87
2022-09-15T01:25:41.805Z,994.88
2022-09-15T01:26:41.781Z,994.88
2022-09-15T01:27:42.974Z,994.88
2022-09-15T01:28:43.641Z,994.90
2022-09-15T01:29:41.765Z,994.91
2022-09-15T01:30:41.750Z,994.92
2022-09-15T01:31:41.801Z,994.92
2022-09-15T01:32:41.749Z,994.92
2022-09-15T01:33:41.710Z,994.91
2022-09-15T01:34:41.715Z,994.91
2022-09-15T01:35:41.711Z,994.92
2022-09-15T01:36:41.677Z,994.91
2022-09-15T01:37:41.689Z,994.90
2022-09-15T01:38:41.782Z,994.91
2022-09-15T01:39:41.679Z,994.90
2022-09-15T01:40:41.686Z,994.90
2022-09-15T01:41:41.636Z,994.89
2022-09-15T01:42:41.616Z,994.88
2022-09-15T01:43:41.626Z,994.87
2022-09-15T01:44:41.632Z,994.88
2022-09-15T01:45:41.677Z,994.88
2022-09-15T01:46:41.579Z,994.87
2022-09-15T01:47:41.601Z,994.87
2022-09-15T01:48:41.561Z,994.88
2022-09-15T01:49:41.569Z,994.87
2022-09-15T01:50:41.566Z,994.86
2022-09-15T01:51:41.566Z,994.87
2022-09-15T01:52:41.522Z,994.88
2022-09-15T01:53:41.580Z,994.89
2022-09-15T01:54:41.493Z,994.88
2022-09-15T01:55:41.529Z,994.88
2022-09-15T01:56:41.493Z,994.87
2022-09-15T01:57:41.475Z,994.87
2022-09-15T01:58:41.451Z,994.88
2022-09-15T01:59:41.449Z,994.91
2022-09-15T02:00:41.456Z,994.93
2022-09-15T02:01:41.530Z,994.92
2022-09-15T02:02:41.413Z,994.92
2022-09-15T02:03:41.423Z,994.91
2022-09-15T02:04:41.443Z,994.92
2022-09-15T02:05:41.416Z,994.92
2022-09-15T02:06:41.402Z,994.93
2022-09-15T02:07:41.378Z,994.90
2022-09-15T02:08:41.404Z,994.89
2022-09-15T02:09:41.347Z,994.90
2022-09-15T02:10:41.327Z,994.90
2022-09-15T02:11:41.332Z,994.90
2022-09-15T02:12:41.335Z,994.89
2022-09-15T02:13:41.325Z,994.89
2022-09-15T02:14:41.304Z,994.89
2022-09-15T02:15:41.283Z,994.89
2022-09-15T02:16:41.308Z,994.88
2022-09-15T02:17:41.263Z,994.88
2022-09-15T02:18:41.290Z,994.87
2022-09-15T02:19:41.265Z,994.87
2022-09-15T02:20:41.268Z,994.88
2022-09-15T02:21:41.282Z,994.89
2022-09-15T02:22:41.228Z,994.89
2022-09-15T02:23:41.280Z,994.89
2022-09-15T02:24:41.217Z,994.91
2022-09-15T02:25:41.182Z,994.91
2022-09-15T02:26:41.193Z,994.92
2022-09-15T02:27:41.160Z,994.93
2022-09-15T02:28:41.149Z,994.93
2022-09-15T02:29:41.160Z,994.93
2022-09-15T02:30:41.146Z,994.94
2022-09-15T02:31:41.182Z,994.93
2022-09-15T02:32:41.126Z,994.94
2022-09-15T02:33:41.105Z,994.95
2022-09-15T02:34:41.132Z,994.95
2022-09-15T02:35:41.094Z,994.94
2022-09-15T02:36:41.069Z,994.94
2022-09-15T02:37:41.064Z,994.95
2022-09-15T02:38:41.100Z,994.96
2022-09-15T02:39:41.071Z,994.96
2022-09-15T02:40:41.058Z,994.97
2022-09-15T02:41:41.034Z,994.97
2022-09-15T02:42:41.013Z,994.98
2022-09-15T02:43:41.023Z,994.97
2022-09-15T02:44:40.977Z,994.96
2022-09-15T02:45:41.064Z,994.96
2022-09-15T02:46:40.957Z,994.98
2022-09-15T02:47:40.949Z,994.99
2022-09-15T02:48:40.970Z,994.99
2022-09-15T02:49:40.971Z,994.97
2022-09-15T02:50:40.939Z,994.98
2022-09-15T02:51:40.933Z,994.99
2022-09-15T02:52:40.916Z,995.00
2022-09-15T02:53:40.979Z,994.99
2022-09-15T02:54:40.893Z,995.01
2022-09-15T02:55:40.893Z,995.00
2022-09-15T02:56:40.884Z,995.00
2022-09-15T02:57:40.854Z,995.02
2022-09-15T02:58:40.839Z,995.02
2022-09-15T02:59:40.857Z,995.03
2022-09-15T03:00:40.867Z,995.03
2022-09-15T03:01:40.884Z,995.05
2022-09-15T03:02:40.964Z,995.07
2022-09-15T03:03:42.959Z,995.09
2022-09-15T03:04:40.809Z,995.11
2022-09-15T03:05:40.810Z,995.15
2022-09-15T03:06:40.787Z,995.16
2022-09-15T03:07:40.762Z,995.19
2022-09-15T03:08:40.741Z,995.19
2022-09-15T03:09:40.748Z,995.21
2022-09-15T03:10:40.716Z,995.23
2022-09-15T03:11:40.762Z,995.23
2022-09-15T03:12:40.756Z,995.25
2022-09-15T03:13:40.712Z,995.27
2022-09-15T03:14:40.719Z,995.26
2022-09-15T03:15:40.733Z,995.27
2022-09-15T03:16:40.747Z,995.27
2022-09-15T03:17:40.683Z,995.30
2022-09-15T03:18:40.641Z,995.30
2022-09-15T03:19:40.670Z,995.32
2022-09-15T03:20:40.651Z,995.31
2022-09-15T03:21:40.638Z,995.34
2022-09-15T03:22:40.638Z,995.37
2022-09-15T03:23:40.685Z,995.38
2022-09-15T03:24:40.593Z,995.40
2022-09-15T03:25:40.598Z,995.40
2022-09-15T03:26:40.589Z,995.42
2022-09-15T03:27:40.565Z,995.45
2022-09-15T03:28:40.570Z,995.46
2022-09-15T03:29:40.579Z,995.47
2022-09-15T03:30:40.521Z,995.48
2022-09-15T03:31:40.557Z,995.49
2022-09-15T03:32:40.522Z,995.51
2022-09-15T03:33:40.524Z,995.51
2022-09-15T03:34:40.505Z,995.52
2022-09-15T03:35:40.513Z,995.52
2022-09-15T03:36:40.466Z,995.53
2022-09-15T03:37:40.510Z,995.54
2022-09-15T03:38:40.538Z,995.56
2022-09-15T03:39:40.462Z,995.57
2022-09-15T03:40:40.445Z,995.61
2022-09-15T03:41:40.418Z,995.61
2022-09-15T03:42:40.415Z,995.60
2022-09-15T03:43:40.413Z,995.60
2022-09-15T03:44:40.394Z,995.61
2022-09-15T03:45:40.561Z,995.63
2022-09-15T03:46:40.365Z,995.63
2022-09-15T03:47:40.383Z,995.62
2022-09-15T03:48:40.362Z,995.64
2022-09-15T03:49:40.422Z,995.66
2022-09-15T03:50:40.336Z,995.67
2022-09-15T03:51:40.322Z,995.67
2022-09-15T03:52:40.342Z,995.70
2022-09-15T03:53:40.293Z,995.68
2022-09-15T03:54:40.315Z,995.70
2022-09-15T03:55:40.301Z,995.71
2022-09-15T03:56:40.282Z,995.72
2022-09-15T03:57:40.291Z,995.70
2022-09-15T03:58:40.249Z,995.71
2022-09-15T03:59:40.256Z,995.73
2022-09-15T04:00:40.329Z,995.72
2022-09-15T04:01:40.295Z,995.74
2022-09-15T04:02:40.221Z,995.75
2022-09-15T04:03:45.158Z,995.78
2022-09-15T04:04:40.189Z,995.78
2022-09-15T04:05:40.241Z,995.77
2022-09-15T04:06:40.196Z,995.77
2022-09-15T04:07:40.157Z,995.78
2022-09-15T04:08:40.156Z,995.81
2022-09-15T04:09:40.133Z,995.83
2022-09-15T04:10:40.128Z,995.84
2022-09-15T04:11:40.176Z,995.84
2022-09-15T04:12:40.108Z,995.86
2022-09-15T04:13:40.093Z,995.88
2022-09-15T04:14:40.094Z,995.89
2022-09-15T04:15:40.072Z,995.90
2022-09-15T04:16:40.177Z,995.91
2022-09-15T04:17:40.045Z,995.89
2022-09-15T04:18:40.045Z,995.91
2022-09-15T04:19:40.027Z,995.94
2022-09-15T04:20:40.061Z,995.91
2022-09-15T04:21:40.028Z,995.93
2022-09-15T04:22:40.007Z,995.95
2022-09-15T04:23:39.994Z,995.93
2022-09-15T04:24:39.982Z,995.95
2022-09-15T04:25:39.970Z,995.96
2022-09-15T04:26:39.982Z,995.93
2022-09-15T04:27:39.949Z,995.92
2022-09-15T04:28:39.978Z,995.93
2022-09-15T04:29:39.928Z,995.96
2022-09-15T04:30:39.918Z,995.97
2022-09-15T04:31:39.969Z,995.99
2022-09-15T04:32:39.921Z,996.01
2022-09-15T04:33:39.935Z,996.00
2022-09-15T04:34:41.541Z,996.00
2022-09-15T04:35:39.882Z,995.98
2022-09-15T04:36:39.888Z,995.97
2022-09-15T04:37:39.874Z,995.98
2022-09-15T04:38:39.789Z,995.96
2022-09-15T04:39:39.828Z,996.01
2022-09-15T04:40:39.821Z,996.01
2022-09-15T04:41:39.825Z,996.04
2022-09-15T04:42:39.824Z,996.05
2022-09-15T04:43:39.842Z,996.08
2022-09-15T04:44:39.788Z,996.05
2022-09-15T04:45:39.753Z,996.07
2022-09-15T04:46:39.840Z,996.08
2022-09-15T04:47:39.736Z,996.08
2022-09-15T04:48:39.729Z,996.09
2022-09-15T04:49:39.665Z,996.10
2022-09-15T04:50:39.717Z,996.10
2022-09-15T04:51:39.710Z,996.13
2022-09-15T04:52:39.707Z,996.10
2022-09-15T04:53:39.639Z,996.12
2022-09-15T04:54:39.651Z,996.09
2022-09-15T04:55:39.620Z,996.13
2022-09-15T04:56:39.636Z,996.14
2022-09-15T04:57:39.666Z,996.16
2022-09-15T04:58:39.593Z,996.15
2022-09-15T04:59:39.593Z,996.20
2022-09-15T05:00:39.596Z,996.20
2022-09-15T05:01:39.627Z,996.22
2022-09-15T05:02:39.540Z,996.25
2022-09-15T05:03:39.540Z,996.23
2022-09-15T05:04:39.537Z,996.26
2022-09-15T05:05:39.527Z,996.25
2022-09-15T05:06:39.565Z,996.25
2022-09-15T05:07:39.483Z,996.26
2022-09-15T05:08:39.490Z,996.27
2022-09-15T05:09:40.252Z,996.27
2022-09-15T05:10:39.494Z,996.27
2022-09-15T05:11:39.506Z,996.27
2022-09-15T05:12:39.462Z,996.27
2022-09-15T05:13:39.425Z,996.30
2022-09-15T05:14:39.432Z,996.32
2022-09-15T05:15:39.428Z,996.34
2022-09-15T05:16:39.551Z,996.38
2022-09-15T05:17:39.443Z,996.40
2022-09-15T05:18:39.406Z,996.41
2022-09-15T05:19:39.410Z,996.43
2022-09-15T05:20:39.382Z,996.43
2022-09-15T05:21:39.357Z,996.42
2022-09-15T05:22:41.819Z,996.44
2022-09-15T05:23:39.325Z,996.44
2022-09-15T05:24:39.340Z,996.45
2022-09-15T05:25:39.312Z,996.46
2022-09-15T05:26:39.359Z,996.47
2022-09-15T05:27:39.306Z,996.50
2022-09-15T05:28:39.280Z,996.49
2022-09-15T05:29:39.295Z,996.53
2022-09-15T05:30:43.616Z,996.52
2022-09-15T05:31:39.351Z,996.50
2022-09-15T05:32:39.237Z,996.52
2022-09-15T05:33:39.236Z,996.52
2022-09-15T05:34:39.263Z,996.54
2022-09-15T05:35:39.247Z,996.57
2022-09-15T05:36:39.316Z,996.59
2022-09-15T05:37:39.216Z,996.60
2022-09-15T05:38:39.184Z,996.62
2022-09-15T05:39:39.188Z,996.63
2022-09-15T05:40:39.171Z,996.64
2022-09-15T05:41:39.160Z,996.65
2022-09-15T05:42:39.148Z,996.67
2022-09-15T05:43:39.144Z,996.66
2022-09-15T05:44:39.155Z,996.67
2022-09-15T05:45:39.104Z,996.68
2022-09-15T05:46:39.116Z,996.68
2022-09-15T05:47:39.081Z,996.68
2022-09-15T05:48:39.135Z,996.67
2022-09-15T05:49:39.068Z,996.69
2022-09-15T05:50:39.086Z,996.72
2022-09-15T05:51:39.070Z,996.76
2022-09-15T05:52:39.050Z,996.79
2022-09-15T05:53:39.074Z,996.81
2022-09-15T05:54:39.045Z,996.83
2022-09-15T05:55:39.010Z,996.84
2022-09-15T05:56:39.046Z,996.86
2022-09-15T05:57:38.989Z,996.88
2022-09-15T05:58:39.009Z,996.90
2022-09-15T05:59:38.965Z,996.90
2022-09-15T06:00:38.965Z,996.90
2022-09-15T06:01:38.984Z,996.91
2022-09-15T06:02:39.069Z,996.93
2022-09-15T06:03:38.985Z,996.93
2022-09-15T06:04:38.940Z,996.93
2022-09-15T06:05:38.904Z,996.94
2022-09-15T06:06:38.912Z,996.95
2022-09-15T06:07:38.888Z,996.97
2022-09-15T06:08:42.464Z,996.97
2022-09-15T06:09:38.873Z,996.98
2022-09-15T06:10:38.887Z,996.98
2022-09-15T06:11:38.861Z,996.99
2022-09-15T06:12:38.850Z,996.99
2022-09-15T06:13:38.930Z,996.97
2022-09-15T06:14:38.816Z,996.97
2022-09-15T06:15:38.802Z,996.96
2022-09-15T06:16:38.864Z,996.96
2022-09-15T06:17:39.993Z,996.93
2022-09-15T06:18:38.921Z,996.90
2022-09-15T06:19:38.936Z,996.88
2022-09-15T06:20:38.909Z,996.90
2022-09-15T06:21:38.897Z,996.90
2022-09-15T06:22:38.779Z,996.91
2022-09-15T06:23:38.750Z,996.93
2022-09-15T06:24:38.715Z,996.94
2022-09-15T06:25:38.734Z,996.95
2022-09-15T06:26:38.717Z,996.94
2022-09-15T06:27:38.690Z,996.95
2022-09-15T06:28:38.679Z,996.97
2022-09-15T06:29:38.665Z,996.96
2022-09-15T06:30:38.656Z,996.98
2022-09-15T06:31:38.694Z,996.98
2022-09-15T06:32:38.678Z,996.99
2022-09-15T06:33:38.617Z,997.04
2022-09-15T06:34:38.614Z,997.07
2022-09-15T06:35:38.605Z,997.11
2022-09-15T06:36:38.605Z,997.12
2022-09-15T06:37:38.601Z,997.15
2022-09-15T06:38:38.636Z,997.17
2022-09-15T06:39:38.572Z,997.19
2022-09-15T06:40:38.548Z,997.19
2022-09-15T06:42:00.810Z,997.21
2022-09-15T06:42:38.559Z,997.21
2022-09-15T06:43:38.513Z,997.23
2022-09-15T06:44:38.529Z,997.23
2022-09-15T06:45:38.504Z,997.24
2022-09-15T06:46:38.549Z,997.27
2022-09-15T06:47:38.496Z,997.24
2022-09-15T06:48:38.475Z,997.25
2022-09-15T06:49:38.476Z,997.27
2022-09-15T06:50:38.453Z,997.27
2022-09-15T06:51:38.480Z,997.27
2022-09-15T06:52:38.429Z,997.29
2022-09-15T06:53:38.420Z,997.33
2022-09-15T06:54:38.409Z,997.35
2022-09-15T06:55:38.394Z,997.38
2022-09-15T06:56:38.577Z,997.39
2022-09-15T06:57:39.343Z,997.40
2022-09-15T06:58:38.400Z,997.42
2022-09-15T06:59:38.459Z,997.45
2022-09-15T07:00:38.383Z,997.46
2022-09-15T07:01:38.347Z,997.47
2022-09-15T07:02:38.585Z,997.48
2022-09-15T07:03:38.389Z,997.49
2022-09-15T07:04:38.351Z,997.52
2022-09-15T07:05:38.315Z,997.52
2022-09-15T07:06:38.321Z,997.52
2022-09-15T07:07:38.274Z,997.50
2022-09-15T07:08:38.296Z,997.52
2022-09-15T07:09:41.142Z,997.52
2022-09-15T07:10:38.278Z,997.54
2022-09-15T07:11:38.250Z,997.55
2022-09-15T07:12:38.245Z,997.56
2022-09-15T07:13:38.234Z,997.57
2022-09-15T07:14:38.274Z,997.57
2022-09-15T07:15:38.205Z,997.58
2022-09-15T07:16:38.485Z,997.60
2022-09-15T07:17:38.179Z,997.60
2022-09-15T07:18:42.836Z,997.62
2022-09-15T07:19:38.184Z,997.64
2022-09-15T07:20:38.777Z,997.65
2022-09-15T07:21:38.151Z,997.66
2022-09-15T07:22:38.155Z,997.67
2022-09-15T07:23:38.135Z,997.67
2022-09-15T07:24:38.137Z,997.67
2022-09-15T07:25:38.127Z,997.68
2022-09-15T07:26:38.083Z,997.68
2022-09-15T07:27:38.104Z,997.70
2022-09-15T07:28:38.160Z,997.71
2022-09-15T07:29:38.052Z,997.70
2022-09-15T07:30:38.079Z,997.70
2022-09-15T07:31:38.171Z,997.70
2022-09-15T07:32:38.035Z,997.70
2022-09-15T07:33:38.023Z,997.72
2022-09-15T07:34:38.038Z,997.74
2022-09-15T07:35:38.010Z,997.74
2022-09-15T07:36:38.017Z,997.74
2022-09-15T07:37:37.976Z,997.74
2022-09-15T07:38:37.980Z,997.73
2022-09-15T07:39:38.014Z,997.74
2022-09-15T07:40:38.016Z,997.75
2022-09-15T07:41:38.000Z,997.77
2022-09-15T07:42:37.940Z,997.77
2022-09-15T07:43:37.938Z,997.79
2022-09-15T07:44:37.903Z,997.81
2022-09-15T07:45:37.933Z,997.80
2022-09-15T07:46:37.896Z,997.80
2022-09-15T07:47:37.907Z,997.81
2022-09-15T07:48:37.884Z,997.82
2022-09-15T07:49:38.407Z,997.82
2022-09-15T07:50:37.934Z,997.84
2022-09-15T07:51:37.822Z,997.85
2022-09-15T07:52:37.859Z,997.87
2022-09-15T07:53:37.821Z,997.88
2022-09-15T07:54:37.838Z,997.89
2022-09-15T07:55:37.793Z,997.89
2022-09-15T07:56:37.808Z,997.90
2022-09-15T07:57:37.802Z,997.91
2022-09-15T07:58:37.778Z,997.93
2022-09-15T07:59:41.115Z,997.95
2022-09-15T08:00:37.782Z,997.96
2022-09-15T08:01:37.779Z,997.99
2022-09-15T08:02:37.748Z,998.02
2022-09-15T08:03:37.739Z,998.03
2022-09-15T08:04:37.699Z,998.06
2022-09-15T08:05:41.275Z,998.07
2022-09-15T08:06:37.914Z,998.08
2022-09-15T08:07:37.675Z,998.10
2022-09-15T08:08:37.657Z,998.11
2022-09-15T08:09:38.231Z,998.11
2022-09-15T08:10:37.930Z,998.13
2022-09-15T08:11:37.949Z,998.16
2022-09-15T08:12:37.839Z,998.19
2022-09-15T08:13:38.047Z,998.21
2022-09-15T08:14:37.742Z,998.21
2022-09-15T08:15:37.922Z,998.23
2022-09-15T08:16:38.643Z,998.22
2022-09-15T08:17:37.957Z,998.23
2022-09-15T08:18:37.848Z,998.23
2022-09-15T08:19:37.553Z,998.24
2022-09-15T08:20:37.546Z,998.26
2022-09-15T08:21:37.576Z,998.26
2022-09-15T08:22:37.534Z,998.27
2022-09-15T08:23:37.506Z,998.28
2022-09-15T08:24:37.487Z,998.29
2022-09-15T08:25:37.487Z,998.30
2022-09-15T08:26:37.469Z,998.33
2022-09-15T08:27:37.487Z,998.34
2022-09-15T08:28:37.499Z,998.36
2022-09-15T08:29:37.509Z,998.39
2022-09-15T08:30:37.563Z,998.43
2022-09-15T08:31:37.616Z,998.44
2022-09-15T08:32:37.482Z,998.47
2022-09-15T08:33:40.731Z,998.46
2022-09-15T08:34:37.428Z,998.52
2022-09-15T08:35:37.936Z,998.53
2022-09-15T08:36:37.708Z,998.53
2022-09-15T08:37:47.888Z,998.56
2022-09-15T08:38:37.342Z,998.55
2022-09-15T08:39:37.611Z,998.56
2022-09-15T08:40:37.428Z,998.58
2022-09-15T08:41:37.421Z,998.59
2022-09-15T08:42:41.598Z,998.61
2022-09-15T08:43:37.401Z,998.61
2022-09-15T08:44:37.280Z,998.60
2022-09-15T08:45:37.401Z,998.62
2022-09-15T08:46:37.304Z,998.61
2022-09-15T08:47:37.312Z,998.60
2022-09-15T08:48:37.306Z,998.61
2022-09-15T08:49:51.153Z,998.62
2022-09-15T08:50:37.301Z,998.61
2022-09-15T08:51:37.367Z,998.61
2022-09-15T08:52:37.332Z,998.59
2022-09-15T08:53:37.967Z,998.58
2022-09-15T08:54:37.285Z,998.59
2022-09-15T08:55:37.389Z,998.59
2022-09-15T08:56:38.346Z,998.58
2022-09-15T08:57:37.221Z,998.57
2022-09-15T08:58:37.170Z,998.56
2022-09-15T08:59:37.129Z,998.54
2022-09-15T09:00:37.149Z,998.55
2022-09-15T09:01:37.221Z,998.54
2022-09-15T09:02:37.182Z,998.53
2022-09-15T09:03:37.456Z,998.52
2022-09-15T09:04:37.117Z,998.53
2022-09-15T09:05:37.188Z,998.52
2022-09-15T09:06:37.080Z,998.52
2022-09-15T09:07:37.169Z,998.52
2022-09-15T09:08:37.359Z,998.51
2022-09-15T09:09:37.117Z,998.51
2022-09-15T09:10:37.067Z,998.51
2022-09-15T09:11:37.219Z,998.52
2022-09-15T09:12:37.090Z,998.52
2022-09-15T09:13:36.971Z,998.54
2022-09-15T09:14:36.983Z,998.55
2022-09-15T09:15:37.065Z,998.57
2022-09-15T09:16:37.107Z,998.60
2022-09-15T09:17:37.003Z,998.60
2022-09-15T09:18:37.531Z,998.61
2022-09-15T09:19:36.920Z,998.60
2022-09-15T09:20:37.481Z,998.62
2022-09-15T09:21:37.002Z,998.61
2022-09-15T09:22:37.054Z,998.59
2022-09-15T09:23:36.888Z,998.60
2022-09-15T09:24:37.011Z,998.61
2022-09-15T09:25:36.858Z,998.61
2022-09-15T09:26:37.537Z,998.63
2022-09-15T09:27:36.918Z,998.60
2022-09-15T09:28:36.985Z,998.61
2022-09-15T09:29:36.876Z,998.63
2022-09-15T09:30:36.969Z,998.61
2022-09-15T09:31:36.882Z,998.63
2022-09-15T09:32:36.949Z,998.59
2022-09-15T09:33:38.607Z,998.63
2022-09-15T09:34:37.026Z,998.62
2022-09-15T09:35:36.774Z,998.66
2022-09-15T09:36:36.789Z,998.65
2022-09-15T09:37:37.047Z,998.65
2022-09-15T09:38:36.976Z,998.64
2022-09-15T09:39:36.795Z,998.64
2022-09-15T09:40:36.921Z,998.65
2022-09-15T09:41:36.805Z,998.63
2022-09-15T09:42:36.773Z,998.66
2022-09-15T09:43:36.731Z,998.65
2022-09-15T09:44:36.671Z,998.63
2022-09-15T09:45:36.641Z,998.62
2022-09-15T09:46:36.772Z,998.62
2022-09-15T09:47:36.646Z,998.60
2022-09-15T09:48:36.597Z,998.59
2022-09-15T09:49:36.625Z,998.58
2022-09-15T09:50:36.624Z,998.61
2022-09-15T09:51:36.647Z,998.59
2022-09-15T09:52:36.557Z,998.60
2022-09-15T09:53:36.608Z,998.60
2022-09-15T09:54:36.644Z,998.58
2022-09-15T09:55:36.583Z,998.58
2022-09-15T09:56:36.550Z,998.58
2022-09-15T09:57:39.942Z,998.56
2022-09-15T09:58:37.502Z,998.57
2022-09-15T09:59:36.552Z,998.57
2022-09-15T10:00:36.598Z,998.58
2022-09-15T10:01:36.578Z,998.57
2022-09-15T10:06:27.536Z,998.55
2022-09-15T10:07:28.282Z,998.57
2022-09-15T10:08:28.199Z,998.56
2022-09-15T10:09:33.146Z,998.55
2022-09-15T10:10:28.208Z,998.53
2022-09-15T10:11:28.133Z,998.55
2022-09-15T10:12:28.193Z,998.52
2022-09-15T10:13:28.996Z,998.54
2022-09-15T10:14:28.213Z,998.54
2022-09-15T10:15:28.130Z,998.53
2022-09-15T10:16:28.600Z,998.53
2022-09-15T10:17:28.095Z,998.51
2022-09-15T10:18:28.100Z,998.51
2022-09-15T10:19:28.057Z,998.50
2022-09-15T10:20:28.068Z,998.50
2022-09-15T10:21:28.127Z,998.47
2022-09-15T10:22:28.559Z,998.48
2022-09-15T10:23:28.059Z,998.46
2022-09-15T10:24:28.070Z,998.46
2022-09-15T10:25:39.726Z,998.47
2022-09-15T10:26:28.056Z,998.46
2022-09-15T10:27:27.996Z,998.46
2022-09-15T10:28:28.054Z,998.44
2022-09-15T10:29:28.063Z,998.45
2022-09-15T10:30:28.013Z,998.42
2022-09-15T10:31:28.078Z,998.42
2022-09-15T10:32:28.078Z,998.42
2022-09-15T10:33:27.962Z,998.39
2022-09-15T10:34:29.003Z,998.41
2022-09-15T10:35:28.812Z,998.39
2022-09-15T10:36:27.971Z,998.41
2022-09-15T10:37:28.494Z,998.41
2022-09-15T10:38:28.058Z,998.43
2022-09-15T10:39:28.068Z,998.43
2022-09-15T10:40:27.972Z,998.45
2022-09-15T10:41:28.009Z,998.47
2022-09-15T10:42:27.915Z,998.49
2022-09-15T10:43:27.901Z,998.51
2022-09-15T10:44:27.860Z,998.51
2022-09-15T10:45:27.909Z,998.51
2022-09-15T10:46:27.826Z,998.52
2022-09-15T10:47:27.821Z,998.52
2022-09-15T10:48:27.841Z,998.54
2022-09-15T10:49:27.854Z,998.54
2022-09-15T10:50:27.855Z,998.54
2022-09-15T10:51:27.911Z,998.58
2022-09-15T10:52:28.174Z,998.60
2022-09-15T10:53:27.783Z,998.61
2022-09-15T10:54:27.700Z,998.59
2022-09-15T10:55:42.481Z,998.60
2022-09-15T10:56:27.802Z,998.62
2022-09-15T10:58:27.691Z,998.62
2022-09-15T10:59:27.731Z,998.64
2022-09-15T11:00:27.827Z,998.65
2022-09-15T11:01:27.820Z,998.65
2022-09-15T11:02:27.684Z,998.65
2022-09-15T11:03:27.631Z,998.64
2022-09-15T11:04:27.634Z,998.65
2022-09-15T11:05:27.828Z,998.67
2022-09-15T11:06:27.671Z,998.65
2022-09-15T11:07:27.580Z,998.67
2022-09-15T11:08:27.568Z,998.67
2022-09-15T11:09:27.591Z,998.66
2022-09-15T11:10:27.601Z,998.67
2022-09-15T11:11:27.508Z,998.68
2022-09-15T11:12:29.414Z,998.69
2022-09-15T11:13:27.492Z,998.70
2022-09-15T11:14:27.689Z,998.70
2022-09-15T11:15:27.484Z,998.71
2022-09-15T11:16:27.709Z,998.72
2022-09-15T11:17:27.469Z,998.73
2022-09-15T11:18:27.502Z,998.77
2022-09-15T11:19:28.098Z,998.78
2022-09-15T11:20:27.651Z,998.79
2022-09-15T11:21:27.481Z,998.79
2022-09-15T11:22:27.482Z,998.82
2022-09-15T11:23:27.906Z,998.82
2022-09-15T11:24:28.685Z,998.84
2022-09-15T11:25:27.367Z,998.87
2022-09-15T11:26:27.404Z,998.86
2022-09-15T11:27:28.127Z,998.88
2022-09-15T11:28:27.372Z,998.90
2022-09-15T11:29:27.324Z,998.90
2022-09-15T11:30:28.062Z,998.90
2022-09-15T11:31:27.414Z,998.91
2022-09-15T11:32:27.319Z,998.90
2022-09-15T11:33:27.331Z,998.91
2022-09-15T11:34:27.306Z,998.90
2022-09-15T11:35:27.622Z,998.92
2022-09-15T11:36:27.318Z,998.93
2022-09-15T11:37:27.266Z,998.90
2022-09-15T11:38:27.271Z,998.90
2022-09-15T11:39:27.227Z,998.92
2022-09-15T11:40:27.309Z,998.94
2022-09-15T11:41:27.274Z,998.96
2022-09-15T11:42:27.197Z,998.95
2022-09-15T11:43:27.204Z,998.95
2022-09-15T11:44:27.326Z,998.95
2022-09-15T11:45:27.198Z,998.94
2022-09-15T11:46:27.250Z,998.95
2022-09-15T11:47:27.210Z,998.96
2022-09-15T11:48:27.147Z,998.97
2022-09-15T11:49:27.155Z,998.97
2022-09-15T11:50:27.112Z,998.96
2022-09-15T11:51:27.230Z,998.95
2022-09-15T11:52:27.232Z,998.95
2022-09-15T11:53:27.260Z,998.92
2022-09-15T11:54:31.061Z,998.88
2022-09-15T11:55:27.105Z,998.86
2022-09-15T11:56:27.093Z,998.85
2022-09-15T11:57:27.074Z,998.84
2022-09-15T11:58:27.032Z,998.85
2022-09-15T11:59:27.054Z,998.83
2022-09-15T12:00:27.208Z,998.82
2022-09-15T12:01:27.128Z,998.82
2022-09-15T12:02:27.220Z,998.81
2022-09-15T12:03:26.989Z,998.80
2022-09-15T12:04:26.952Z,998.79
2022-09-15T12:05:27.021Z,998.78
2022-09-15T12:06:26.925Z,998.76
2022-09-15T12:07:26.946Z,998.76
2022-09-15T12:08:26.934Z,998.75
2022-09-15T12:09:26.937Z,998.77
2022-09-15T12:10:26.969Z,998.77
2022-09-15T12:11:26.914Z,998.76
2022-09-15T12:12:30.650Z,998.77
2022-09-15T12:13:26.953Z,998.78
2022-09-15T12:14:26.836Z,998.78
2022-09-15T12:15:26.934Z,998.79
2022-09-15T12:16:26.932Z,998.81
2022-09-15T12:17:26.817Z,998.80
2022-09-15T12:18:38.447Z,998.81
2022-09-15T12:19:26.797Z,998.80
2022-09-15T12:20:26.920Z,998.79
2022-09-15T12:21:26.872Z,998.78
2022-09-15T12:22:26.777Z,998.77
2022-09-15T12:23:26.895Z,998.76
2022-09-15T12:24:26.813Z,998.78
2022-09-15T12:25:26.807Z,998.83
2022-09-15T12:26:26.790Z,998.80
2022-09-15T12:27:26.714Z,998.79
2022-09-15T12:28:28.622Z,998.79
2022-09-15T12:29:26.682Z,998.84
2022-09-15T12:30:26.706Z,998.84
2022-09-15T12:31:26.834Z,998.85
2022-09-15T12:32:26.686Z,998.87
2022-09-15T12:33:26.677Z,998.89